createdAt,value
2023-05-25T00:01:58.994Z,99727.88
2023-05-25T00:04:30.735Z,99720.22
2023-05-25T00:06:59.218Z,99718.56
2023-05-25T00:09:27.843Z,99713.97
2023-05-25T00:11:56.238Z,99727.00
2023-05-25T00:14:24.711Z,99728.22
2023-05-25T00:16:53.484Z,99719.56
2023-05-25T00:19:23.283Z,99726.37
2023-05-25T00:21:52.242Z,99722.75
2023-05-25T00:24:20.960Z,99722.03
2023-05-25T00:26:55.238Z,99724.25
2023-05-25T00:29:23.939Z,99726.44
2023-05-25T00:31:52.367Z,99721.47
2023-05-25T00:34:20.879Z,99716.06
2023-05-25T00:36:51.614Z,99721.34
2023-05-25T00:39:21.022Z,99725.78
2023-05-25T00:41:50.556Z,99721.44
2023-05-25T00:44:21.892Z,99720.19
2023-05-25T00:46:51.338Z,99729.94
2023-05-25T00:49:20.884Z,99730.41
2023-05-25T00:51:49.289Z,99731.16
2023-05-25T00:54:19.657Z,99729.47
2023-05-25T00:56:48.634Z,99730.62
2023-05-25T00:59:19.025Z,99738.22
2023-05-25T01:01:47.715Z,99742.53
2023-05-25T01:04:16.578Z,99737.19
2023-05-25T01:06:45.703Z,99738.69
2023-05-25T01:09:14.717Z,99734.59
2023-05-25T01:11:45.992Z,99736.75
2023-05-25T01:14:14.634Z,99742.00
2023-05-25T01:16:43.088Z,99747.00
2023-05-25T01:19:11.913Z,99744.22
2023-05-25T01:21:43.045Z,99744.44
2023-05-25T01:24:13.082Z,99749.22
2023-05-25T01:26:44.010Z,99748.44
2023-05-25T01:29:12.479Z,99750.91
2023-05-25T01:31:40.917Z,99745.66
2023-05-25T01:34:09.679Z,99755.78
2023-05-25T01:36:38.160Z,99754.69
2023-05-25T01:39:11.065Z,99746.66
2023-05-25T01:41:40.119Z,99758.34
2023-05-25T01:44:08.771Z,99750.81
2023-05-25T01:46:38.018Z,99752.47
2023-05-25T01:49:10.273Z,99748.84
2023-05-25T01:51:39.899Z,99753.69
2023-05-25T01:54:11.293Z,99758.75
2023-05-25T01:56:39.701Z,99756.38
2023-05-25T01:59:08.072Z,99759.41
2023-05-25T02:01:36.835Z,99764.47
2023-05-25T02:04:06.782Z,99766.03
2023-05-25T02:06:36.753Z,99763.56
2023-05-25T02:09:07.216Z,99765.94
2023-05-25T02:11:36.988Z,99760.56
2023-05-25T02:14:05.696Z,99766.84
2023-05-25T02:16:34.159Z,99765.56
2023-05-25T02:19:02.910Z,99764.47
2023-05-25T02:21:31.627Z,99760.34
2023-05-25T02:24:00.040Z,99767.84
2023-05-25T02:26:28.733Z,99767.69
2023-05-25T02:28:58.398Z,99775.75
2023-05-25T02:31:28.245Z,99765.31
2023-05-25T02:33:56.987Z,99771.63
2023-05-25T02:36:27.232Z,99772.25
2023-05-25T02:38:55.586Z,99775.03
2023-05-25T02:41:26.411Z,99773.41
2023-05-25T02:43:54.838Z,99775.31
2023-05-25T02:46:24.589Z,99768.09
2023-05-25T02:48:53.317Z,99775.72
2023-05-25T02:51:21.762Z,99781.09
2023-05-25T02:53:50.110Z,99778.72
2023-05-25T02:56:18.781Z,99772.81
2023-05-25T02:58:47.207Z,99780.03
2023-05-25T03:01:18.439Z,99788.97
2023-05-25T03:03:52.418Z,99784.22
2023-05-25T03:06:21.605Z,99789.50
2023-05-25T03:08:50.426Z,99794.81
2023-05-25T03:11:19.306Z,99793.44
2023-05-25T03:13:48.198Z,99795.00
2023-05-25T03:16:17.996Z,99793.56
2023-05-25T03:18:46.502Z,99795.06
2023-05-25T03:21:16.424Z,99796.44
2023-05-25T03:23:45.521Z,99802.91
2023-05-25T03:26:13.953Z,99799.22
2023-05-25T03:28:43.179Z,99797.97
2023-05-25T03:31:12.224Z,99794.22
2023-05-25T03:33:40.915Z,99799.41
2023-05-25T03:36:09.971Z,99798.81
2023-05-25T03:38:39.936Z,99799.47
2023-05-25T03:41:08.400Z,99802.53
2023-05-25T03:43:36.748Z,99804.56
2023-05-25T03:46:06.244Z,99801.47
2023-05-25T03:48:34.706Z,99812.28
2023-05-25T03:51:03.071Z,99806.19
2023-05-25T03:53:31.702Z,99809.09
2023-05-25T03:56:01.421Z,99810.94
2023-05-25T03:58:29.710Z,99815.12
2023-05-25T04:00:58.389Z,99811.25
2023-05-25T04:03:27.860Z,99818.75
2023-05-25T04:05:57.359Z,99825.44
2023-05-25T04:08:26.411Z,99830.34
2023-05-25T04:10:55.099Z,99828.63
2023-05-25T04:13:27.058Z,99834.53
2023-05-25T04:15:55.834Z,99827.94
2023-05-25T04:18:24.488Z,99823.72
2023-05-25T04:20:52.910Z,99831.25
2023-05-25T04:23:22.456Z,99827.59
2023-05-25T04:25:51.868Z,99828.25
2023-05-25T04:28:20.333Z,99830.12
2023-05-25T04:30:51.677Z,99839.09
2023-05-25T04:33:20.305Z,99845.88
2023-05-25T04:35:50.553Z,99834.34
2023-05-25T04:38:20.285Z,99835.91
2023-05-25T04:40:49.262Z,99843.63
2023-05-25T04:43:20.399Z,99841.84
2023-05-25T04:45:51.415Z,99842.13
2023-05-25T04:48:21.591Z,99846.13
2023-05-25T04:50:50.368Z,99839.50
2023-05-25T04:53:18.706Z,99838.59
2023-05-25T04:55:47.212Z,99847.56
2023-05-25T04:58:18.041Z,99846.47
2023-05-25T05:00:47.247Z,99841.94
2023-05-25T05:03:16.289Z,99840.75
2023-05-25T05:05:46.649Z,99843.13
2023-05-25T05:08:16.157Z,99847.47
2023-05-25T05:10:44.924Z,99849.47
2023-05-25T05:13:14.139Z,99844.66
2023-05-25T05:15:43.858Z,99849.91
2023-05-25T05:18:14.104Z,99849.44
2023-05-25T05:20:42.983Z,99846.97
2023-05-25T05:23:13.122Z,99855.38
2023-05-25T05:25:41.647Z,99851.00
2023-05-25T05:28:11.033Z,99858.28
2023-05-25T05:30:39.758Z,99858.31
2023-05-25T05:33:08.259Z,99855.97
2023-05-25T05:35:37.266Z,99862.25
2023-05-25T05:38:06.090Z,99848.78
2023-05-25T05:40:36.140Z,99851.47
2023-05-25T05:43:06.913Z,99850.41
2023-05-25T05:45:35.657Z,99859.34
2023-05-25T05:48:04.729Z,99860.16
2023-05-25T05:50:34.945Z,99858.41
2023-05-25T05:53:03.695Z,99863.25
2023-05-25T05:55:32.202Z,99859.06
2023-05-25T05:58:02.355Z,99860.78
2023-05-25T06:00:30.879Z,99858.78
2023-05-25T06:03:00.730Z,99865.63
2023-05-25T06:05:29.918Z,99860.34
2023-05-25T06:07:58.887Z,99869.16
2023-05-25T06:10:27.244Z,99866.81
2023-05-25T06:12:55.752Z,99869.13
2023-05-25T06:15:25.813Z,99874.56
2023-05-25T06:17:54.923Z,99886.16
2023-05-25T06:20:24.052Z,99884.44
2023-05-25T06:22:52.532Z,99886.91
2023-05-25T06:25:21.210Z,99885.38
2023-05-25T06:27:52.311Z,99886.75
2023-05-25T06:30:21.034Z,99881.69
2023-05-25T06:32:51.333Z,99880.41
2023-05-25T06:35:21.026Z,99889.25
2023-05-25T06:37:50.322Z,99878.47
2023-05-25T06:40:19.392Z,99879.87
2023-05-25T06:42:47.903Z,99887.28
2023-05-25T06:45:25.398Z,99882.44
2023-05-25T06:47:55.187Z,99889.69
2023-05-25T06:50:23.550Z,99887.44
2023-05-25T06:52:52.345Z,99884.78
2023-05-25T06:55:20.879Z,99884.41
2023-05-25T06:57:49.231Z,99885.91
2023-05-25T07:00:18.287Z,99888.44
2023-05-25T07:02:46.750Z,99884.09
2023-05-25T07:05:16.636Z,99892.97
2023-05-25T07:07:45.388Z,99896.28
2023-05-25T07:10:13.890Z,99895.19
2023-05-25T07:12:45.676Z,99897.91
2023-05-25T07:15:15.447Z,99895.72
2023-05-25T07:17:44.022Z,99895.53
2023-05-25T07:20:13.314Z,99898.66
2023-05-25T07:22:43.630Z,99906.09
2023-05-25T07:25:12.076Z,99905.84
2023-05-25T07:27:40.752Z,99902.84
2023-05-25T07:30:10.227Z,99902.75
2023-05-25T07:32:39.143Z,99903.56
2023-05-25T07:35:07.906Z,99901.75
2023-05-25T07:37:36.584Z,99898.25
2023-05-25T07:40:07.486Z,99904.13
2023-05-25T07:42:35.816Z,99896.13
2023-05-25T07:45:04.772Z,99919.22
2023-05-25T07:47:33.161Z,99900.44
2023-05-25T07:50:01.636Z,99909.72
2023-05-25T07:52:30.402Z,99914.91
2023-05-25T07:54:58.845Z,99904.16
2023-05-25T07:57:31.531Z,99907.47
2023-05-25T08:00:00.241Z,99918.41
2023-05-25T08:02:28.730Z,99902.47
2023-05-25T08:04:57.590Z,99914.81
2023-05-25T08:07:26.058Z,99902.28
2023-05-25T08:09:54.497Z,99903.75
2023-05-25T08:12:38.360Z,99898.84
2023-05-25T08:15:13.536Z,99897.81
2023-05-25T08:17:42.622Z,99903.13
2023-05-25T08:20:11.366Z,99904.16
2023-05-25T08:22:39.886Z,99903.72
2023-05-25T08:25:09.029Z,99904.75
2023-05-25T08:27:37.475Z,99914.31
2023-05-25T08:30:06.962Z,99909.28
2023-05-25T08:32:37.003Z,99907.22
2023-05-25T08:35:05.778Z,99914.16
2023-05-25T08:37:34.340Z,99914.69
2023-05-25T08:40:03.384Z,99910.22
2023-05-25T08:42:32.680Z,99908.91
2023-05-25T08:45:02.361Z,99907.88
2023-05-25T08:47:32.485Z,99920.66
2023-05-25T08:50:08.829Z,99918.63
2023-05-25T08:52:37.547Z,99922.38
2023-05-25T08:55:06.669Z,99923.72
2023-05-25T08:57:36.015Z,99913.38
2023-05-25T09:00:07.405Z,99913.62
2023-05-25T09:02:36.142Z,99906.59
2023-05-25T09:05:05.068Z,99912.59
2023-05-25T09:07:34.840Z,99915.59
2023-05-25T09:10:03.658Z,99917.66
2023-05-25T09:12:32.377Z,99905.00
2023-05-25T09:15:00.928Z,99905.72
2023-05-25T09:17:29.311Z,99916.31
2023-05-25T09:19:58.205Z,99911.56
2023-05-25T09:22:26.571Z,99910.81
2023-05-25T09:24:56.491Z,99903.19
2023-05-25T09:27:25.309Z,99920.56
2023-05-25T09:29:53.798Z,99911.66
2023-05-25T09:32:24.667Z,99905.41
2023-05-25T09:34:53.522Z,99902.19
2023-05-25T09:37:22.159Z,99908.16
2023-05-25T09:39:51.915Z,99909.00
2023-05-25T09:42:21.988Z,99911.34
2023-05-25T09:44:50.375Z,99915.34
2023-05-25T09:47:18.922Z,99917.03
2023-05-25T09:49:49.476Z,99918.41
2023-05-25T09:52:18.006Z,99925.63
2023-05-25T09:54:46.821Z,99917.13
2023-05-25T09:57:16.186Z,99918.81
2023-05-25T09:59:46.267Z,99908.44
2023-05-25T10:02:15.274Z,99916.72
2023-05-25T10:04:43.883Z,99919.16
2023-05-25T10:07:12.352Z,99919.88
2023-05-25T10:09:41.662Z,99917.63
2023-05-25T10:12:10.393Z,99924.66
2023-05-25T10:14:39.164Z,99923.84
2023-05-25T10:17:13.162Z,99917.78
2023-05-25T10:19:45.577Z,99914.41
2023-05-25T10:22:15.373Z,99917.13
2023-05-25T10:24:45.007Z,99903.78
2023-05-25T10:27:26.264Z,99909.28
2023-05-25T10:29:55.466Z,99909.47
2023-05-25T10:32:25.440Z,99901.97
2023-05-25T10:34:53.875Z,99907.16
2023-05-25T10:37:22.538Z,99894.41
2023-05-25T10:39:51.056Z,99894.87
2023-05-25T10:42:19.568Z,99902.59
2023-05-25T10:44:48.260Z,99891.34
2023-05-25T10:47:16.901Z,99897.19
2023-05-25T10:50:04.403Z,99890.94
2023-05-25T10:52:35.583Z,99891.56
2023-05-25T10:55:05.435Z,99889.75
2023-05-25T10:57:34.250Z,99896.81
2023-05-25T11:00:06.264Z,99881.72
2023-05-25T11:02:51.583Z,99888.09
2023-05-25T11:05:32.589Z,99879.69
2023-05-25T11:08:02.939Z,99886.97
2023-05-25T11:10:44.020Z,99882.84
2023-05-25T11:13:31.077Z,99881.34
2023-05-25T11:16:15.518Z,99880.88
2023-05-25T11:18:46.075Z,99877.84
2023-05-25T11:21:14.959Z,99869.13
2023-05-25T11:23:58.426Z,99877.19
2023-05-25T11:26:27.372Z,99873.63
2023-05-25T11:28:56.383Z,99870.16
2023-05-25T11:31:30.156Z,99859.94
2023-05-25T11:33:59.471Z,99864.53
2023-05-25T11:36:27.932Z,99861.75
2023-05-25T11:41:34.160Z,99855.16
2023-05-25T11:44:04.699Z,99859.56
2023-05-25T11:46:38.880Z,99851.66
2023-05-25T11:49:07.692Z,99853.81
2023-05-25T11:51:36.704Z,99845.97
2023-05-25T11:54:05.867Z,99844.28
2023-05-25T11:56:36.395Z,99839.81
2023-05-25T11:59:05.057Z,99833.50
2023-05-25T12:01:34.381Z,99836.31
2023-05-25T12:04:07.583Z,99826.19
2023-05-25T12:06:36.843Z,99836.16
2023-05-25T12:09:06.597Z,99831.63
2023-05-25T12:11:38.295Z,99833.19
2023-05-25T12:14:07.489Z,99827.38
2023-05-25T12:16:37.182Z,99822.50
2023-05-25T12:19:05.764Z,99824.63
2023-05-25T12:21:35.244Z,99822.75
2023-05-25T12:24:06.311Z,99817.00
2023-05-25T12:26:36.924Z,99818.44
2023-05-25T12:29:05.943Z,99817.22
2023-05-25T12:31:38.522Z,99822.94
2023-05-25T12:34:07.491Z,99818.56
2023-05-25T12:36:43.056Z,99807.59
2023-05-25T12:39:11.811Z,99813.00
2023-05-25T12:41:45.638Z,99813.31
2023-05-25T12:44:17.839Z,99808.59
2023-05-25T12:46:46.651Z,99816.34
2023-05-25T12:49:29.719Z,99813.47
2023-05-25T12:51:58.604Z,99808.84
2023-05-25T12:54:36.655Z,99803.06
2023-05-25T12:57:07.879Z,99811.97
2023-05-25T12:59:36.632Z,99810.31
2023-05-25T13:02:06.249Z,99796.69
2023-05-25T13:04:34.944Z,99800.00
2023-05-25T13:07:03.465Z,99795.47
2023-05-25T13:09:32.776Z,99790.91
2023-05-25T13:12:02.274Z,99790.25
2023-05-25T13:14:31.954Z,99791.53
2023-05-25T13:17:00.671Z,99787.28
2023-05-25T13:19:29.000Z,99786.28
2023-05-25T13:21:57.937Z,99790.09
2023-05-25T13:24:26.536Z,99784.47
2023-05-25T13:26:57.433Z,99781.63
2023-05-25T13:29:25.901Z,99779.19
2023-05-25T13:31:56.000Z,99782.03
2023-05-25T13:34:24.443Z,99777.31
2023-05-25T13:36:52.818Z,99774.81
2023-05-25T13:39:22.683Z,99771.66
2023-05-25T13:41:51.033Z,99765.94
2023-05-25T13:44:19.484Z,99755.50
2023-05-25T13:46:48.454Z,99750.16
2023-05-25T13:49:19.686Z,99753.22
2023-05-25T13:51:48.512Z,99748.87
2023-05-25T13:54:17.293Z,99749.63
2023-05-25T13:56:45.813Z,99736.06
2023-05-25T13:59:14.481Z,99737.06
2023-05-25T14:01:42.925Z,99734.28
2023-05-25T14:04:12.561Z,99727.59
2023-05-25T14:06:42.385Z,99731.00
2023-05-25T14:09:12.690Z,99724.66
2023-05-25T14:11:44.959Z,99725.78
2023-05-25T14:14:27.132Z,99727.34
2023-05-25T14:16:59.898Z,99726.91
2023-05-25T14:19:28.288Z,99727.50
2023-05-25T14:24:29.886Z,99719.03
2023-05-25T14:26:58.301Z,99719.72
2023-05-25T14:29:26.749Z,99719.59
2023-05-25T14:31:55.545Z,99725.38
2023-05-25T14:34:23.886Z,99720.59
2023-05-25T14:36:52.295Z,99715.38
2023-05-25T14:39:22.332Z,99717.75
2023-05-25T14:41:50.916Z,99715.78
2023-05-25T14:44:19.384Z,99717.34
2023-05-25T14:46:48.129Z,99711.16
2023-05-25T14:49:16.899Z,99702.84
2023-05-25T14:51:45.334Z,99702.41
2023-05-25T14:54:14.461Z,99694.00
2023-05-25T14:56:44.197Z,99702.00
2023-05-25T14:59:12.629Z,99705.22
2023-05-25T15:01:41.450Z,99702.13
2023-05-25T15:04:09.945Z,99713.13
2023-05-25T15:06:39.449Z,99707.66
2023-05-25T15:09:08.053Z,99697.47
2023-05-25T15:11:36.450Z,99695.19
2023-05-25T15:14:06.104Z,99698.63
2023-05-25T15:16:35.067Z,99695.81
2023-05-25T15:19:03.602Z,99699.03
2023-05-25T15:21:32.014Z,99704.34
2023-05-25T15:24:00.830Z,99705.09
2023-05-25T15:26:29.223Z,99702.44
2023-05-25T15:28:58.011Z,99700.00
2023-05-25T15:31:28.119Z,99704.00
2023-05-25T15:33:58.873Z,99707.25
2023-05-25T15:36:28.015Z,99699.09
2023-05-25T15:38:56.384Z,99701.41
2023-05-25T15:41:24.768Z,99697.91
2023-05-25T15:43:57.906Z,99702.13
2023-05-25T15:46:27.904Z,99697.25
2023-05-25T15:48:56.660Z,99705.16
2023-05-25T15:51:24.996Z,99698.13
2023-05-25T15:53:54.808Z,99695.94
2023-05-25T15:56:23.789Z,99700.84
2023-05-25T15:58:52.907Z,99694.41
2023-05-25T16:01:21.384Z,99696.44
2023-05-25T16:03:51.396Z,99694.81
2023-05-25T16:06:19.842Z,99702.78
2023-05-25T16:08:48.227Z,99700.69
2023-05-25T16:11:16.849Z,99704.69
2023-05-25T16:13:45.223Z,99706.09
2023-05-25T16:16:13.686Z,99707.31
2023-05-25T16:18:42.643Z,99709.84
2023-05-25T16:21:12.575Z,99713.25
2023-05-25T16:23:40.977Z,99704.31
2023-05-25T16:26:10.225Z,99702.88
2023-05-25T16:28:38.797Z,99704.47
2023-05-25T16:31:07.310Z,99701.78
2023-05-25T16:33:35.919Z,99700.34
2023-05-25T16:36:04.399Z,99704.59
2023-05-25T16:38:34.077Z,99707.16
2023-05-25T16:41:02.736Z,99700.22
2023-05-25T16:43:31.068Z,99705.81
2023-05-25T16:45:59.488Z,99703.53
2023-05-25T16:48:30.114Z,99714.25
2023-05-25T16:50:58.563Z,99719.00
2023-05-25T16:53:26.898Z,99710.16
2023-05-25T16:55:56.955Z,99712.69
2023-05-25T16:58:25.405Z,99713.22
2023-05-25T17:00:53.977Z,99715.62
2023-05-25T17:03:22.741Z,99718.41
2023-05-25T17:05:53.748Z,99719.00
2023-05-25T17:08:22.597Z,99718.63
2023-05-25T17:10:51.016Z,99713.53
2023-05-25T17:13:21.356Z,99716.41
2023-05-25T17:15:50.323Z,99705.34
2023-05-25T17:18:18.779Z,99706.97
2023-05-25T17:20:47.238Z,99709.19
2023-05-25T17:23:17.064Z,99713.56
2023-05-25T17:25:46.026Z,99700.59
2023-05-25T17:28:14.515Z,99704.75
2023-05-25T17:30:44.532Z,99724.53
2023-05-25T17:33:12.971Z,99722.50
2023-05-25T17:35:41.325Z,99723.91
2023-05-25T17:38:09.967Z,99729.66
2023-05-25T17:40:38.289Z,99712.63
2023-05-25T17:43:06.659Z,99706.97
2023-05-25T17:45:35.424Z,99710.50
2023-05-25T17:48:05.197Z,99705.31
2023-05-25T17:50:33.554Z,99712.34
2023-05-25T17:53:04.944Z,99719.59
2023-05-25T17:55:33.305Z,99713.75
2023-05-25T17:58:01.934Z,99715.34
2023-05-25T18:00:30.869Z,99715.06
2023-05-25T18:02:59.583Z,99712.00
2023-05-25T18:05:29.381Z,99710.09
2023-05-25T18:07:57.810Z,99714.22
2023-05-25T18:10:26.446Z,99718.03
2023-05-25T18:12:54.794Z,99718.72
2023-05-25T18:15:23.250Z,99720.34
2023-05-25T18:17:52.015Z,99722.12
2023-05-25T18:20:20.498Z,99723.19
2023-05-25T18:22:50.316Z,99720.63
2023-05-25T18:25:18.959Z,99726.50
2023-05-25T18:27:47.908Z,99728.69
2023-05-25T18:30:16.473Z,99735.78
2023-05-25T18:32:45.144Z,99743.44
2023-05-25T18:35:17.292Z,99736.09
2023-05-25T18:37:45.981Z,99748.16
2023-05-25T18:40:16.455Z,99744.13
2023-05-25T18:42:44.895Z,99743.91
2023-05-25T18:45:13.604Z,99745.72
2023-05-25T18:47:42.123Z,99748.16
2023-05-25T18:50:11.903Z,99752.41
2023-05-25T18:52:41.400Z,99753.78
2023-05-25T18:55:09.925Z,99759.72
2023-05-25T18:57:39.667Z,99758.97
2023-05-25T19:00:08.993Z,99763.09
2023-05-25T19:02:38.721Z,99771.56
2023-05-25T19:05:08.092Z,99771.94
2023-05-25T19:07:50.706Z,99782.16
2023-05-25T19:10:26.697Z,99778.81
2023-05-25T19:12:56.445Z,99788.19
2023-05-25T19:15:24.812Z,99786.75
2023-05-25T19:17:53.486Z,99792.75
2023-05-25T19:20:21.902Z,99790.28
2023-05-25T19:22:50.457Z,99782.69
2023-05-25T19:25:19.531Z,99788.31
2023-05-25T19:27:48.541Z,99786.66
2023-05-25T19:30:18.412Z,99794.16
2023-05-25T19:32:47.083Z,99795.19
2023-05-25T19:35:15.567Z,99796.78
2023-05-25T19:37:43.911Z,99795.72
2023-05-25T19:40:13.460Z,99792.31
2023-05-25T19:42:41.937Z,99791.41
2023-05-25T19:45:10.995Z,99796.91
2023-05-25T19:47:41.083Z,99790.66
2023-05-25T19:50:09.854Z,99803.03
2023-05-25T19:52:38.282Z,99797.66
2023-05-25T19:55:07.369Z,99793.19
2023-05-25T19:57:35.810Z,99796.13
2023-05-25T20:00:05.897Z,99796.88
2023-05-25T20:02:41.402Z,99794.41
2023-05-25T20:05:10.740Z,99803.03
2023-05-25T20:07:39.175Z,99807.34
2023-05-25T20:10:08.308Z,99802.78
2023-05-25T20:12:36.964Z,99795.31
2023-05-25T20:15:05.646Z,99795.81
2023-05-25T20:17:34.121Z,99800.53
2023-05-25T20:20:05.176Z,99799.31
2023-05-25T20:22:33.649Z,99796.94
2023-05-25T20:25:02.068Z,99797.06
2023-05-25T20:27:30.758Z,99799.50
2023-05-25T20:29:59.145Z,99795.72
2023-05-25T20:32:27.554Z,99800.66
2023-05-25T20:34:56.290Z,99800.63
2023-05-25T20:37:25.952Z,99804.59
2023-05-25T20:39:54.257Z,99798.34
2023-05-25T20:42:22.983Z,99801.16
2023-05-25T20:44:51.479Z,99797.50
2023-05-25T20:47:19.856Z,99803.56
2023-05-25T20:49:48.539Z,99804.06
2023-05-25T20:52:16.933Z,99791.72
2023-05-25T20:54:46.712Z,99791.59
2023-05-25T20:57:15.337Z,99790.44
2023-05-25T20:59:43.755Z,99793.41
2023-05-25T21:02:12.242Z,99799.28
2023-05-25T21:04:40.892Z,99805.44
2023-05-25T21:07:09.318Z,99806.84
2023-05-25T21:09:37.663Z,99805.13
2023-05-25T21:12:07.781Z,99800.28
2023-05-25T21:14:36.505Z,99803.50
2023-05-25T21:17:06.263Z,99796.94
2023-05-25T21:19:34.883Z,99794.38
2023-05-25T21:22:03.638Z,99801.19
2023-05-25T21:24:31.957Z,99797.44
2023-05-25T21:27:01.509Z,99804.56
2023-05-25T21:29:31.266Z,99799.25
2023-05-25T21:31:59.813Z,99799.84
2023-05-25T21:34:28.500Z,99799.50
2023-05-25T21:36:56.916Z,99802.03
2023-05-25T21:39:25.351Z,99804.56
2023-05-25T21:41:54.034Z,99806.78
2023-05-25T21:44:22.414Z,99810.06
2023-05-25T21:46:52.187Z,99818.69
2023-05-25T21:49:20.936Z,99818.28
2023-05-25T21:51:49.681Z,99818.97
2023-05-25T21:54:20.488Z,99817.87
2023-05-25T21:56:49.222Z,99813.00
2023-05-25T21:59:17.706Z,99816.91
2023-05-25T22:01:46.191Z,99818.97
2023-05-25T22:04:16.307Z,99817.28
2023-05-25T22:06:45.036Z,99818.03
2023-05-25T22:09:13.745Z,99820.00
2023-05-25T22:11:42.856Z,99825.34
2023-05-25T22:14:12.194Z,99826.13
2023-05-25T22:16:40.772Z,99817.87
2023-05-25T22:19:09.403Z,99822.97
2023-05-25T22:21:41.337Z,99816.50
2023-05-25T22:24:10.049Z,99815.03
2023-05-25T22:26:38.406Z,99815.97
2023-05-25T22:29:06.875Z,99814.16
2023-05-25T22:31:35.647Z,99813.66
2023-05-25T22:34:06.254Z,99811.84
2023-05-25T22:36:34.904Z,99811.78
2023-05-25T22:39:04.633Z,99809.31
2023-05-25T22:41:32.947Z,99812.81
2023-05-25T22:44:01.551Z,99809.97
2023-05-25T22:46:29.924Z,99812.78
2023-05-25T22:48:58.366Z,99812.84
2023-05-25T22:51:26.974Z,99821.00
2023-05-25T22:53:55.275Z,99816.19
2023-05-25T22:56:24.955Z,99818.66
2023-05-25T22:58:53.585Z,99809.47
2023-05-25T23:01:24.134Z,99808.06
2023-05-25T23:03:52.970Z,99810.91
2023-05-25T23:06:21.711Z,99807.75
2023-05-25T23:08:50.067Z,99803.47
2023-05-25T23:11:18.442Z,99812.66
2023-05-25T23:13:50.618Z,99807.75
2023-05-25T23:16:19.088Z,99801.41
2023-05-25T23:18:47.782Z,99810.09
2023-05-25T23:21:16.305Z,99810.97
2023-05-25T23:23:44.691Z,99807.09
2023-05-25T23:26:13.288Z,99805.53
2023-05-25T23:28:41.683Z,99800.84
2023-05-25T23:31:11.450Z,99803.91
2023-05-25T23:33:40.080Z,99803.44
2023-05-25T23:36:08.640Z,99797.75
2023-05-25T23:38:37.006Z,99796.94
2023-05-25T23:41:05.749Z,99801.28
2023-05-25T23:43:34.083Z,99792.28
2023-05-25T23:46:02.492Z,99796.47
2023-05-25T23:48:32.549Z,99800.84
2023-05-25T23:51:01.066Z,99790.75
2023-05-25T23:53:29.420Z,99795.06
2023-05-25T23:55:58.098Z,99797.09
2023-05-25T23:58:26.421Z,99799.50
